.
WxDataArchive / Data Records for 2006-11-30
2006-11-29 November 2006 2006-12-01

Data Records for Thursday, 30 November 2006

Time	Temp	Chill	HIndex	Humid	Dewpt	 Wind 	HiWind	WindDir	Rain 	Barom 
-----	----	-----	------	-----	-----	------	------	-------	-----	----- 
00:00	61.6	61.6	61.6	83	56.4	2	9	68	0.00	29.900 
00:05	61.8	61.8	61.8	82	56.2	3	7	90	0.00	29.900 
00:10	62.0	62.0	62.0	82	56.4	3	7	90	0.00	29.900 
00:15	62.0	62.0	62.0	82	56.4	2	7	315	0.00	29.894 
00:20	62.1	62.1	62.1	82	56.5	2	7	90	0.00	29.894 
00:25	62.3	62.3	62.3	82	56.7	3	9	90	0.00	29.894 
00:30	62.4	62.4	62.4	82	56.8	3	7	90	0.00	29.887 
00:35	62.6	62.6	62.6	82	57.0	4	10	90	0.00	29.887 
00:40	62.6	62.6	62.6	82	57.0	3	7	112	0.00	29.887 
00:45	62.6	62.6	62.6	82	57.0	3	7	90	0.00	29.879 
00:50	62.7	62.7	62.7	81	56.8	4	14	90	0.00	29.879 
00:55	62.7	62.7	62.7	81	56.8	3	12	112	0.00	29.879 
01:00	62.7	62.7	62.7	81	56.8	3	6	90	0.00	29.877 
01:05	62.6	62.6	62.6	81	56.7	2	7	90	0.00	29.877 
01:10	62.4	62.4	62.4	82	56.8	3	7	90	0.00	29.877 
01:15	62.3	62.3	62.3	82	56.7	2	6	68	0.00	29.869 
01:20	62.1	62.1	62.1	82	56.5	2	9	90	0.00	29.869 
01:25	62.0	62.0	62.0	83	56.8	2	7	90	0.00	29.869 
01:30	62.0	62.0	62.0	83	56.8	2	11	292	0.00	29.865 
01:35	61.8	61.8	61.8	83	56.6	2	6	338	0.00	29.865 
01:40	61.6	61.6	61.6	83	56.4	2	6	338	0.00	29.865 
01:45	61.6	61.6	61.6	84	56.7	1	4	248	0.00	29.866 
01:50	61.6	61.6	61.6	84	56.7	1	4	248	0.00	29.866 
01:55	61.6	61.6	61.6	84	56.7	1	4	248	0.00	29.866 
02:00	61.6	61.6	61.6	84	56.7	1	6	270	0.00	29.863 
02:05	61.6	61.6	61.6	84	56.7	1	3	22	0.00	29.863 
02:10	61.6	61.6	61.6	84	56.7	2	6	112	0.00	29.863 
02:15	61.6	61.6	61.6	84	56.7	2	7	248	0.00	29.865 
02:20	61.6	61.6	61.6	84	56.7	2	6	90	0.00	29.865 
02:25	61.6	61.6	61.6	84	56.7	2	5	90	0.00	29.865 
02:30	61.6	61.6	61.6	84	56.7	2	5	90	0.00	29.862 
02:35	61.6	61.6	61.6	84	56.7	2	5	90	0.00	29.862 
02:40	61.8	61.8	61.8	83	56.6	2	6	112	0.00	29.862 
02:45	61.8	61.8	61.8	83	56.6	2	6	292	0.00	29.862 
02:50	62.0	62.0	62.0	83	56.8	2	7	248	0.00	29.862 
02:55	62.1	62.1	62.1	82	56.5	2	7	248	0.00	29.862 
03:00	62.1	62.1	62.1	82	56.5	2	7	90	0.00	29.860 
03:05	62.3	62.3	62.3	82	56.7	3	10	248	0.00	29.860 
03:10	62.4	62.4	62.4	82	56.8	2	8	248	0.00	29.860 
03:15	62.4	62.4	62.4	81	56.5	2	6	270	0.00	29.857 
03:20	62.4	62.4	62.4	81	56.5	3	11	225	0.00	29.857 
03:25	62.4	62.4	62.4	81	56.5	2	11	270	0.00	29.857 
03:30	62.4	62.4	62.4	81	56.5	2	5	248	0.00	29.850 
03:35	62.4	62.4	62.4	81	56.5	3	7	270	0.00	29.850 
03:40	62.4	62.4	62.4	81	56.5	3	7	292	0.00	29.850 
03:45	62.4	62.4	62.4	81	56.5	2	10	270	0.00	29.848 
03:50	62.4	62.4	62.4	81	56.5	2	5	248	0.00	29.848 
03:55	62.4	62.4	62.4	81	56.5	3	7	270	0.00	29.848 
04:00	62.4	62.4	62.4	81	56.5	2	6	225	0.00	29.837 
04:05	62.3	62.3	62.3	82	56.7	2	6	270	0.00	29.837 
04:10	62.3	62.3	62.3	82	56.7	3	8	202	0.00	29.837 
04:15	62.3	62.3	62.3	82	56.7	2	5	248	0.00	29.832 
04:20	62.1	62.1	62.1	82	56.5	2	6	248	0.00	29.832 
04:25	62.0	62.0	62.0	82	56.4	2	7	248	0.00	29.832 
04:30	62.0	62.0	62.0	82	56.4	2	5	270	0.00	29.832 
04:35	61.8	61.8	61.8	83	56.6	2	7	248	0.00	29.832 
04:40	61.8	61.8	61.8	83	56.6	2	12	90	0.00	29.832 
04:45	61.8	61.8	61.8	83	56.6	2	7	112	0.00	29.831 
04:50	61.6	61.6	61.6	83	56.4	3	8	225	0.00	29.831 
04:55	61.6	61.6	61.6	83	56.4	2	5	270	0.00	29.831 
05:00	61.6	61.6	61.6	84	56.7	2	9	68	0.00	29.829 
05:05	61.5	61.5	61.5	84	56.6	2	6	90	0.00	29.829 
05:10	61.5	61.5	61.5	84	56.6	2	7	90	0.00	29.829 
05:15	61.3	61.3	61.3	84	56.4	2	7	90	0.00	29.828 
05:20	61.3	61.3	61.3	84	56.4	2	6	248	0.00	29.828 
05:25	61.3	61.3	61.3	84	56.4	1	6	270	0.00	29.828 
05:30	61.3	61.3	61.3	84	56.4	2	5	270	0.00	29.830 
05:35	61.5	61.5	61.5	84	56.6	2	7	225	0.00	29.830 
05:40	61.6	61.6	61.6	84	56.7	3	11	248	0.00	29.830 
05:45	61.3	61.3	61.3	83	56.1	3	5	270	0.00	29.838 
05:50	58.7	58.7	58.7	81	52.9	3	6	315	0.00	29.838 
05:55	56.9	56.9	56.9	82	51.5	2	5	315	0.00	29.838 
06:00	55.3	55.3	55.3	84	50.5	2	7	315	0.00	29.854 
06:05	54.4	54.4	54.4	87	50.6	1	2	315	0.00	29.854 
06:10	54.1	54.1	54.1	88	50.6	0	2	292	0.00	29.854 
06:15	53.9	53.9	53.9	89	50.7	0	1	292	0.00	29.851 
06:20	53.8	53.8	53.8	90	50.9	0	1	292	0.01	29.851 
06:25	53.6	53.6	53.6	90	50.7	0	1	292	0.00	29.851 
06:30	53.6	53.6	53.6	91	51.0	0	1	292	0.00	29.854 
06:35	53.5	53.5	53.5	92	51.2	0	0	---	0.00	29.854 
06:40	53.5	53.5	53.5	92	51.2	0	0	---	0.00	29.854 
06:45	53.3	53.3	53.3	92	51.0	0	1	292	0.00	29.851 
06:50	53.3	53.3	53.3	92	51.0	0	1	292	0.00	29.851 
06:55	53.2	53.2	53.2	93	51.2	0	1	292	0.00	29.851 
07:00	53.2	53.2	53.2	93	51.2	0	0	---	0.01	29.854 
07:05	53.2	53.2	53.2	93	51.2	0	0	---	0.00	29.854 
07:10	53.1	53.1	53.1	93	51.1	0	1	292	0.00	29.854 
07:15	53.1	53.1	53.1	93	51.1	1	2	292	0.00	29.873 
07:20	52.9	52.9	52.9	94	51.2	0	1	248	0.02	29.873 
07:25	52.8	52.8	52.8	94	51.1	0	2	270	0.00	29.873 
07:30	52.8	52.8	52.8	94	51.1	0	1	270	0.01	29.861 
07:35	52.8	52.8	52.8	94	51.1	0	1	270	0.00	29.861 
07:40	52.6	52.6	52.6	94	50.9	0	1	270	0.00	29.861 
07:45	52.6	52.6	52.6	95	51.2	1	2	270	0.00	29.864 
07:50	52.6	52.6	52.6	95	51.2	1	3	248	0.00	29.864 
07:55	52.5	52.5	52.5	95	51.1	1	3	338	0.00	29.864 
08:00	52.5	52.5	52.5	95	51.1	0	2	338	0.01	29.874 
08:05	52.5	52.5	52.5	95	51.1	0	1	338	0.00	29.874 
08:10	52.5	52.5	52.5	95	51.1	1	2	270	0.02	29.874 
08:15	52.5	52.5	52.5	96	51.4	0	2	292	0.01	29.885 
08:20	52.5	52.5	52.5	96	51.4	0	1	292	0.01	29.885 
08:25	52.3	52.3	52.3	96	51.2	0	1	292	0.01	29.885 
08:30	52.2	52.2	52.2	96	51.1	0	1	292	0.01	29.889 
08:35	52.2	52.2	52.2	96	51.1	0	2	315	0.00	29.889 
08:40	52.0	52.0	52.0	96	50.9	1	4	338	0.01	29.889 
08:45	51.6	51.6	51.6	96	50.5	1	4	270	0.00	29.892 
08:50	51.4	51.4	51.4	96	50.3	1	3	270	0.00	29.892 
08:55	50.8	50.8	50.8	95	49.4	2	6	338	0.00	29.892 
09:00	50.5	50.5	50.5	95	49.1	1	3	338	0.01	29.890 
09:05	50.1	50.1	50.1	95	48.7	2	5	292	0.00	29.890 
09:10	49.5	49.5	49.5	94	47.8	1	5	338	0.00	29.890 
09:15	49.4	49.4	49.4	94	47.7	1	3	338	0.00	29.892 
09:20	49.1	49.1	49.1	94	47.4	1	3	292	0.00	29.892 
09:25	48.8	48.8	48.8	94	47.1	1	4	292	0.00	29.892 
09:30	48.6	48.6	48.6	94	47.0	1	4	315	0.00	29.910 
09:35	48.5	48.5	48.5	94	46.9	1	3	292	0.00	29.910 
09:40	48.2	48.2	48.2	93	46.3	2	4	315	0.00	29.910 
09:45	47.9	47.9	47.9	93	46.0	2	6	292	0.01	29.915 
09:50	47.7	47.7	47.7	93	45.8	1	4	292	0.00	29.915 
09:55	47.6	47.6	47.6	94	46.0	1	4	315	0.00	29.915 
10:00	47.3	47.3	47.3	94	45.7	2	5	338	0.01	29.899 
10:05	47.0	47.0	47.0	94	45.4	2	6	338	0.00	29.899 
10:10	46.8	46.8	46.8	94	45.2	1	5	315	0.01	29.899 
10:15	46.8	46.8	46.8	94	45.2	1	4	270	0.01	29.895 
10:20	46.8	46.8	46.8	94	45.2	1	3	315	0.00	29.895 
10:25	46.7	46.7	46.7	94	45.1	2	5	315	0.01	29.895 
10:30	46.7	46.7	46.7	94	45.1	1	5	45	0.00	29.906 
10:35	46.2	46.2	46.2	94	44.6	1	5	338	0.01	29.906 
10:40	46.0	46.0	46.0	94	44.4	1	5	315	0.01	29.906 
10:45	45.8	45.8	45.8	93	43.9	2	6	315	0.00	29.916 
10:50	45.7	45.7	45.7	93	43.8	1	5	315	0.00	29.916 
10:55	45.7	45.7	45.7	94	44.1	1	3	292	0.01	29.916 
11:00	45.7	45.7	45.7	94	44.1	1	4	270	0.00	29.927 
11:05	45.7	45.7	45.7	94	44.1	1	3	292	0.01	29.927 
11:10	45.7	45.7	45.7	94	44.1	0	3	270	0.01	29.927 
11:15	45.7	45.7	45.7	94	44.1	1	3	270	0.00	29.936 
11:20	45.8	45.8	45.8	95	44.4	0	2	270	0.01	29.936 
11:25	46.0	46.0	46.0	95	44.6	1	3	338	0.00	29.936 
11:30	46.0	46.0	46.0	95	44.6	0	1	315	0.00	29.921 
11:35	45.8	45.8	45.8	95	44.4	0	3	315	0.00	29.921 
11:40	45.8	45.8	45.8	95	44.4	1	2	292	0.00	29.921 
11:45	45.8	45.8	45.8	95	44.4	1	3	315	0.00	29.910 
11:50	45.7	45.7	45.7	94	44.1	1	4	292	0.00	29.910 
11:55	45.7	45.7	45.7	94	44.1	0	2	315	0.00	29.910 
12:00	45.8	45.8	45.8	94	44.2	1	4	315	0.00	29.923 
12:05	45.7	45.7	45.7	94	44.1	1	3	315	0.00	29.923 
12:10	45.7	45.7	45.7	94	44.1	1	3	338	0.01	29.923 
12:15	45.8	45.8	45.8	94	44.2	1	2	338	0.01	29.933 
12:20	45.7	45.7	45.7	94	44.1	1	2	315	0.00	29.933 
12:25	45.5	45.5	45.5	94	43.9	1	3	338	0.01	29.933 
12:30	45.5	45.5	45.5	94	43.9	1	5	270	0.01	29.934 
12:35	45.4	45.4	45.4	94	43.8	1	2	315	0.01	29.934 
12:40	45.2	45.2	45.2	94	43.6	1	5	292	0.00	29.934 
12:45	45.4	45.4	45.4	94	43.8	1	4	0	0.01	29.921 
12:50	45.2	45.2	45.2	94	43.6	1	4	292	0.00	29.921 
12:55	45.1	45.1	45.1	94	43.5	1	3	315	0.00	29.921 
13:00	44.9	44.9	44.9	94	43.3	1	5	292	0.00	29.914 
13:05	44.8	44.8	44.8	93	42.9	1	4	338	0.00	29.914 
13:10	44.8	44.8	44.8	93	42.9	1	4	270	0.00	29.914 
13:15	44.6	44.6	44.6	93	42.7	1	5	315	0.01	29.916 
13:20	44.6	44.6	44.6	94	43.0	1	3	315	0.00	29.916 
13:25	44.6	44.6	44.6	94	43.0	1	3	292	0.01	29.916 
13:30	44.3	44.3	44.3	93	42.4	1	3	338	0.00	29.916 
13:35	44.3	44.3	44.3	94	42.7	0	3	270	0.01	29.916 
13:40	44.3	44.3	44.3	94	42.7	0	2	270	0.00	29.916 
13:45	44.1	44.1	44.1	94	42.5	0	3	315	0.00	29.914 
13:50	43.9	43.9	43.9	94	42.3	0	2	270	0.01	29.914 
13:55	43.8	43.8	43.8	94	42.2	1	4	270	0.01	29.914 
14:00	43.6	43.6	43.6	94	42.0	1	2	0	0.02	29.908 
14:05	43.8	43.8	43.8	94	42.2	0	1	0	0.01	29.908 
14:10	43.8	43.8	43.8	94	42.2	1	2	0	0.01	29.908 
14:15	43.5	43.5	43.5	94	41.9	1	3	338	0.00	29.908 
14:20	43.5	43.5	43.5	94	41.9	1	3	0	0.01	29.908 
14:25	43.3	43.3	43.3	94	41.7	1	3	315	0.01	29.908 
14:30	43.2	43.2	43.2	94	41.6	1	5	292	0.00	29.908 
14:35	42.8	42.8	42.8	93	40.9	1	5	292	0.01	29.908 
14:40	42.5	42.5	42.5	93	40.6	1	4	292	0.01	29.908 
14:45	42.2	42.2	42.2	93	40.3	1	6	0	0.01	29.913 
14:50	41.9	41.9	41.9	93	40.0	1	3	338	0.00	29.913 
14:55	41.8	41.8	41.8	93	39.9	1	4	0	0.01	29.913 
15:00	41.8	41.8	41.8	93	39.9	1	4	338	0.00	29.907 
15:05	41.6	41.6	41.6	93	39.7	1	3	22	0.01	29.907 
15:10	41.6	41.6	41.6	93	39.7	1	3	338	0.00	29.907 
15:15	41.6	41.6	41.6	93	39.7	0	2	0	0.00	29.899 
15:20	41.6	41.6	41.6	93	39.7	1	2	22	0.01	29.899 
15:25	41.5	41.5	41.5	93	39.6	1	2	0	0.00	29.899 
15:30	41.5	41.5	41.5	93	39.6	1	3	315	0.01	29.906 
15:35	41.5	41.5	41.5	93	39.6	0	2	315	0.00	29.906 
15:40	41.5	41.5	41.5	94	39.9	0	4	135	0.01	29.906 
15:45	41.3	41.3	41.3	94	39.7	0	5	0	0.00	29.916 
15:50	41.3	41.3	41.3	94	39.7	1	5	0	0.01	29.916 
15:55	41.2	41.2	41.2	93	39.3	1	3	0	0.01	29.916 
16:00	40.8	40.8	40.8	93	38.9	2	6	0	0.00	29.915 
16:05	40.6	40.6	40.6	93	38.7	1	2	338	0.01	29.915 
16:10	40.5	40.5	40.5	92	38.4	2	5	22	0.00	29.915 
16:15	40.5	40.5	40.5	93	38.6	1	4	338	0.00	29.923 
16:20	40.3	40.3	40.3	93	38.4	2	7	22	0.00	29.923 
16:25	40.3	40.3	40.3	93	38.4	1	4	0	0.00	29.923 
16:30	40.1	40.1	40.1	92	38.0	2	7	22	0.00	29.941 
16:35	39.9	39.9	39.9	92	37.8	1	4	338	0.00	29.941 
16:40	39.9	39.9	39.9	92	37.8	1	4	0	0.00	29.941 
16:45	39.8	39.8	39.8	92	37.7	1	4	22	0.01	29.935 
16:50	39.8	39.8	39.8	92	37.7	1	3	338	0.00	29.935 
16:55	39.8	39.8	39.8	92	37.7	1	4	68	0.00	29.935 
17:00	39.6	39.6	39.6	92	37.5	1	4	22	0.00	29.933 
17:05	39.5	39.5	39.5	93	37.6	0	2	338	0.00	29.933 
17:10	39.5	39.5	39.5	93	37.6	1	3	338	0.01	29.933 
17:15	39.3	39.3	39.3	93	37.4	1	3	0	0.00	29.952 
17:20	39.3	39.3	39.3	93	37.4	1	3	22	0.00	29.952 
17:25	39.2	39.2	39.2	93	37.3	1	2	338	0.00	29.952 
17:30	39.2	39.2	39.2	93	37.3	1	5	90	0.00	29.953 
17:35	39.3	39.3	39.3	93	37.4	0	1	68	0.00	29.953 
17:40	39.3	39.3	39.3	93	37.4	0	2	22	0.00	29.953 
17:45	39.3	39.3	39.3	93	37.4	0	3	45	0.00	29.964 
17:50	39.3	39.3	39.3	93	37.4	0	1	68	0.00	29.964 
17:55	39.5	39.5	39.5	93	37.6	1	4	45	0.00	29.964 
18:00	39.5	39.5	39.5	93	37.6	0	2	22	0.00	29.944 
18:05	39.5	39.5	39.5	93	37.6	1	4	90	0.00	29.944 
18:10	39.3	39.3	39.3	93	37.4	1	7	68	0.00	29.944 
18:15	39.3	39.3	39.3	93	37.4	1	2	68	0.00	29.956 
18:20	39.3	39.3	39.3	93	37.4	0	2	22	0.00	29.956 
18:25	39.2	39.2	39.2	92	37.1	1	3	22	0.00	29.956 
18:30	39.2	39.2	39.2	92	37.1	1	3	90	0.00	29.946 
18:35	39.3	39.3	39.3	92	37.2	1	4	90	0.00	29.946 
18:40	39.3	39.3	39.3	92	37.2	1	3	68	0.01	29.946 
18:45	39.3	39.3	39.3	93	37.4	0	2	315	0.00	29.945 
18:50	39.3	39.3	39.3	93	37.4	1	3	0	0.00	29.945 
18:55	39.2	39.2	39.2	93	37.3	1	3	0	0.00	29.945 
19:00	39.2	39.2	39.2	93	37.3	1	4	22	0.00	29.941 
19:05	39.2	39.2	39.2	93	37.3	1	4	68	0.00	29.941 
19:10	39.2	39.2	39.2	93	37.3	1	3	45	0.00	29.941 
19:15	39.2	39.2	39.2	93	37.3	1	6	45	0.00	29.944 
19:20	39.2	39.2	39.2	92	37.1	2	4	68	0.00	29.944 
19:25	39.2	39.2	39.2	92	37.1	2	5	112	0.01	29.944 
19:30	39.2	39.2	39.2	92	37.1	2	7	112	0.00	29.923 
19:35	39.2	39.2	39.2	92	37.1	1	3	112	0.02	29.923 
19:40	39.1	39.1	39.1	92	37.0	2	10	45	0.01	29.923 
19:45	39.1	39.1	39.1	92	37.0	1	4	45	0.00	29.923 
19:50	38.9	38.9	38.9	92	36.8	1	4	0	0.01	29.923 
19:55	38.9	38.9	38.9	93	37.1	1	5	90	0.00	29.923 
20:00	38.9	38.9	38.9	93	37.1	1	4	45	0.01	29.919 
20:05	38.8	38.8	38.8	93	37.0	1	6	45	0.00	29.919 
20:10	38.8	38.8	38.8	93	37.0	1	5	22	0.01	29.919 
20:15	38.8	38.8	38.8	93	37.0	1	2	22	0.01	29.911 
20:20	38.8	38.8	38.8	93	37.0	1	4	90	0.00	29.911 
20:25	38.8	38.8	38.8	94	37.2	2	5	112	0.01	29.911 
20:30	38.8	38.8	38.8	94	37.2	2	5	112	0.00	29.900 
20:35	38.8	38.8	38.8	93	37.0	1	6	112	0.00	29.900 
20:40	38.8	38.8	38.8	93	37.0	3	6	68	0.01	29.900 
20:45	38.8	38.8	38.8	93	37.0	2	6	68	0.01	29.880 
20:50	38.8	38.8	38.8	93	37.0	3	9	90	0.02	29.880 
20:55	38.8	38.8	38.8	93	37.0	3	7	90	0.01	29.880 
21:00	38.8	38.8	38.8	93	37.0	2	6	68	0.00	29.881 
21:05	38.8	38.8	38.8	93	37.0	2	5	22	0.00	29.881 
21:10	38.8	38.8	38.8	93	37.0	2	5	135	0.00	29.881 
21:15	38.8	38.8	38.8	93	37.0	2	4	45	0.01	29.900 
21:20	38.8	38.8	38.8	93	37.0	2	6	112	0.00	29.900 
21:25	38.8	38.8	38.8	93	37.0	2	5	45	0.01	29.900 
21:30	38.9	38.9	38.9	93	37.1	2	5	112	0.00	29.915 
21:35	38.9	38.9	38.9	92	36.8	2	5	90	0.00	29.915 
21:40	38.9	38.9	38.9	92	36.8	2	6	22	0.00	29.915 
21:45	38.9	38.9	38.9	92	36.8	2	7	112	0.01	29.922 
21:50	38.9	38.9	38.9	92	36.8	1	5	90	0.00	29.922 
21:55	38.9	38.9	38.9	93	37.1	2	6	90	0.00	29.922 
22:00	38.9	38.9	38.9	93	37.1	2	7	90	0.00	29.883 
22:05	38.9	38.9	38.9	93	37.1	1	7	45	0.01	29.883 
22:10	38.8	38.8	38.8	93	37.0	2	5	45	0.00	29.883 
22:15	38.8	38.8	38.8	93	37.0	3	6	22	0.00	29.870 
22:20	38.8	38.8	38.8	93	37.0	3	7	90	0.00	29.870 
22:25	38.8	38.8	38.8	93	37.0	3	9	112	0.00	29.870 
22:30	38.8	38.8	38.8	93	37.0	2	5	68	0.01	29.867 
22:35	38.8	38.8	38.8	93	37.0	2	5	112	0.00	29.867 
22:40	38.8	38.8	38.8	94	37.2	2	5	112	0.00	29.867 
22:45	38.9	38.9	38.9	94	37.3	2	7	112	0.00	29.868 
22:50	38.8	38.8	38.8	94	37.2	2	9	112	0.01	29.868 
22:55	38.9	38.9	38.9	94	37.3	3	6	112	0.00	29.868 
23:00	38.9	38.9	38.9	94	37.3	3	9	112	0.01	29.855 
23:05	38.9	38.9	38.9	94	37.3	3	11	90	0.00	29.855 
23:10	38.9	38.9	38.9	94	37.3	2	8	112	0.01	29.855 
23:15	38.9	38.9	38.9	94	37.3	3	9	112	0.02	29.846 
23:20	38.9	38.9	38.9	94	37.3	2	6	90	0.01	29.846 
23:25	38.9	38.9	38.9	94	37.3	3	11	90	0.00	29.846 
23:30	38.9	38.9	38.9	94	37.3	2	4	135	0.01	29.839 
23:35	38.9	38.9	38.9	94	37.3	2	7	90	0.00	29.839 
23:40	38.9	38.9	38.9	94	37.3	3	7	90	0.00	29.839 
23:45	38.9	38.9	38.9	94	37.3	3	10	112	0.00	29.819 
23:50	38.9	38.9	38.9	94	37.3	3	7	22	0.00	29.819 
23:55	38.9	38.9	38.9	94	37.3	3	11	112	0.00	29.819 

CoCoRaHS
IN-AL-39
A2 Web Hosting
Creative Commons License
GoDaddy
Look for:

loaded 2017-12-12 07:19:17 • last modified 2010-11-18 10:43:29
Privacy PolicyDisclaimer
• wx.awcolley.com is powered by PmWiki v.2002016 •
• all content (unless otherwise noted) © 2017 A W Colley